createdAt,value
2024-03-06T00:01:27.182Z,5.70
2024-03-06T00:03:56.024Z,5.60
2024-03-06T00:06:26.851Z,5.70
2024-03-06T00:08:55.644Z,5.70
2024-03-06T00:11:24.774Z,5.70
2024-03-06T00:13:53.722Z,5.70
2024-03-06T00:16:22.811Z,5.70
2024-03-06T00:18:51.768Z,5.70
2024-03-06T00:21:20.746Z,5.60
2024-03-06T00:23:50.946Z,5.40
2024-03-06T00:26:19.919Z,5.50
2024-03-06T00:28:48.917Z,5.40
2024-03-06T00:31:19.855Z,5.40
2024-03-06T00:33:48.783Z,5.50
2024-03-06T00:36:17.820Z,5.50
2024-03-06T00:38:46.654Z,5.50
2024-03-06T00:41:18.156Z,5.40
2024-03-06T00:43:47.540Z,5.30
2024-03-06T00:46:16.646Z,5.30
2024-03-06T00:48:45.564Z,5.30
2024-03-06T00:51:14.730Z,5.40
2024-03-06T00:53:44.742Z,5.30
2024-03-06T00:56:13.957Z,5.30
2024-03-06T00:58:45.526Z,5.30
2024-03-06T01:01:14.536Z,5.30
2024-03-06T01:03:43.514Z,5.30
2024-03-06T01:06:12.427Z,5.30
2024-03-06T01:08:42.256Z,5.30
2024-03-06T01:11:15.711Z,5.20
2024-03-06T01:13:49.337Z,5.20
2024-03-06T01:16:19.741Z,5.10
2024-03-06T01:18:48.945Z,5.10
2024-03-06T01:21:18.073Z,5.10
2024-03-06T01:23:46.922Z,5.10
2024-03-06T01:26:16.025Z,5.10
2024-03-06T01:28:44.934Z,5.10
2024-03-06T01:31:15.376Z,5.20
2024-03-06T01:33:44.272Z,5.20
2024-03-06T01:36:13.117Z,5.30
2024-03-06T01:38:47.689Z,5.30
2024-03-06T01:41:17.625Z,5.20
2024-03-06T01:43:48.282Z,5.30
2024-03-06T01:46:19.003Z,5.20
2024-03-06T01:48:48.495Z,5.10
2024-03-06T01:51:17.682Z,5.00
2024-03-06T01:53:46.693Z,5.10
2024-03-06T01:56:18.970Z,5.20
2024-03-06T01:58:49.893Z,5.20
2024-03-06T02:01:20.629Z,5.10
2024-03-06T02:03:50.249Z,5.10
2024-03-06T02:06:20.853Z,5.10
2024-03-06T02:08:49.979Z,5.20
2024-03-06T02:11:19.488Z,5.00
2024-03-06T02:13:48.465Z,4.90
2024-03-06T02:16:17.836Z,5.00
2024-03-06T02:18:59.094Z,4.90
2024-03-06T02:21:29.511Z,4.90
2024-03-06T02:23:58.460Z,4.90
2024-03-06T02:26:29.002Z,4.90
2024-03-06T02:29:00.862Z,4.80
2024-03-06T02:31:30.860Z,4.90
2024-03-06T02:34:06.739Z,4.80
2024-03-06T02:36:38.815Z,4.90
2024-03-06T02:39:10.240Z,4.80
2024-03-06T02:41:39.353Z,4.70
2024-03-06T02:44:08.687Z,4.60
2024-03-06T02:46:38.196Z,4.70
2024-03-06T02:49:08.046Z,4.70
2024-03-06T02:51:38.310Z,4.70
2024-03-06T02:54:07.247Z,4.70
2024-03-06T02:56:42.348Z,4.70
2024-03-06T02:59:11.330Z,4.60
2024-03-06T03:01:40.396Z,4.60
2024-03-06T03:04:09.414Z,4.60
2024-03-06T03:06:39.790Z,4.60
2024-03-06T03:09:12.733Z,4.50
2024-03-06T03:11:41.616Z,4.50
2024-03-06T03:14:11.637Z,4.50
2024-03-06T03:16:40.535Z,4.30
2024-03-06T03:19:09.604Z,4.40
2024-03-06T03:21:40.456Z,4.40
2024-03-06T03:24:25.118Z,4.40
2024-03-06T03:26:54.032Z,4.40
2024-03-06T03:29:23.275Z,4.40
2024-03-06T03:31:52.288Z,4.30
2024-03-06T03:34:22.206Z,4.30
2024-03-06T03:36:52.526Z,4.30
2024-03-06T03:39:23.292Z,4.30
2024-03-06T03:41:52.318Z,4.30
2024-03-06T03:44:21.786Z,4.40
2024-03-06T03:46:50.927Z,4.40
2024-03-06T03:49:19.838Z,4.40
2024-03-06T03:51:49.186Z,4.30
2024-03-06T03:54:19.648Z,4.30
2024-03-06T03:56:49.222Z,4.30
2024-03-06T03:59:18.341Z,4.40
2024-03-06T04:01:49.027Z,4.40
2024-03-06T04:04:18.198Z,4.40
2024-03-06T04:06:47.807Z,4.40
2024-03-06T04:09:18.224Z,4.30
2024-03-06T04:11:47.212Z,4.20
2024-03-06T04:14:16.291Z,4.20
2024-03-06T04:16:45.331Z,4.20
2024-03-06T04:19:14.316Z,4.20
2024-03-06T04:21:44.502Z,4.30
2024-03-06T04:24:13.579Z,4.30
2024-03-06T04:26:44.059Z,4.40
2024-03-06T04:29:13.511Z,4.40
2024-03-06T04:31:42.513Z,4.40
2024-03-06T04:34:11.450Z,4.40
2024-03-06T04:36:40.291Z,4.40
2024-03-06T04:39:09.738Z,4.30
2024-03-06T04:41:38.649Z,4.20
2024-03-06T04:44:09.180Z,4.20
2024-03-06T04:46:38.144Z,4.10
2024-03-06T04:49:07.147Z,4.20
2024-03-06T04:51:36.370Z,4.20
2024-03-06T04:54:05.768Z,4.20
2024-03-06T04:56:35.442Z,4.10
2024-03-06T04:59:04.669Z,4.20
2024-03-06T05:01:35.491Z,4.20
2024-03-06T05:59:45.762Z,4.50
2024-03-06T06:02:14.859Z,4.50
2024-03-06T06:04:51.666Z,4.60
2024-03-06T06:07:30.338Z,4.50
2024-03-06T06:09:59.431Z,4.50
2024-03-06T06:12:28.863Z,4.40
2024-03-06T06:14:58.090Z,4.50
2024-03-06T06:17:28.675Z,4.50
2024-03-06T06:19:58.025Z,4.50
2024-03-06T06:22:27.397Z,4.50
2024-03-06T06:24:58.822Z,4.50
2024-03-06T06:27:30.314Z,4.50
2024-03-06T06:30:01.317Z,4.40
2024-03-06T06:32:31.757Z,4.40
2024-03-06T06:35:00.786Z,4.40
2024-03-06T06:37:29.749Z,4.40
2024-03-06T06:40:00.692Z,4.30
2024-03-06T06:42:29.589Z,4.40
2024-03-06T06:44:58.698Z,4.40
2024-03-06T06:47:28.239Z,4.40
2024-03-06T06:49:57.301Z,4.40
2024-03-06T06:52:29.073Z,4.30
2024-03-06T06:54:59.621Z,4.40
2024-03-06T06:57:28.591Z,4.40
2024-03-06T06:59:57.451Z,4.40
2024-03-06T07:02:26.429Z,4.40
2024-03-06T07:04:55.537Z,4.40
2024-03-06T07:07:24.477Z,4.40
2024-03-06T07:09:53.910Z,4.40
2024-03-06T07:12:24.251Z,4.40
2024-03-06T07:14:53.276Z,4.30
2024-03-06T07:17:22.156Z,4.40
2024-03-06T07:19:51.673Z,4.40
2024-03-06T07:22:20.616Z,4.40
2024-03-06T07:24:49.618Z,4.40
2024-03-06T07:27:19.721Z,4.50
2024-03-06T07:29:49.997Z,4.50
2024-03-06T07:32:18.972Z,4.60
2024-03-06T07:34:47.854Z,4.60
2024-03-06T07:37:16.866Z,4.70
2024-03-06T07:39:47.511Z,4.70
2024-03-06T07:42:19.131Z,4.80
2024-03-06T07:44:49.423Z,4.80
2024-03-06T07:47:18.209Z,4.80
2024-03-06T07:49:47.251Z,4.80
2024-03-06T07:52:16.337Z,4.80
2024-03-06T07:54:45.261Z,4.90
2024-03-06T07:57:14.081Z,4.90
2024-03-06T07:59:43.105Z,4.90
2024-03-06T08:02:13.616Z,5.00
2024-03-06T08:04:43.008Z,5.00
2024-03-06T08:07:11.986Z,5.10
2024-03-06T08:09:40.831Z,5.10
2024-03-06T08:12:10.598Z,5.10
2024-03-06T08:14:39.610Z,5.10
2024-03-06T08:17:08.594Z,5.10
2024-03-06T08:19:38.923Z,5.00
2024-03-06T08:22:07.855Z,5.10
2024-03-06T08:24:36.757Z,5.10
2024-03-06T08:27:05.894Z,5.10
2024-03-06T08:29:34.735Z,5.10
2024-03-06T08:32:05.118Z,5.20
2024-03-06T08:34:34.886Z,5.30
2024-03-06T08:37:05.459Z,5.40
2024-03-06T08:39:34.348Z,5.40
2024-03-06T08:42:04.313Z,5.50
2024-03-06T08:44:33.214Z,5.50
2024-03-06T08:47:02.146Z,5.60
2024-03-06T08:49:31.067Z,5.70
2024-03-06T08:52:00.593Z,5.70
2024-03-06T08:54:32.306Z,5.80
2024-03-06T08:57:01.236Z,6.00
2024-03-06T08:59:30.181Z,6.10
2024-03-06T09:01:59.044Z,6.10
2024-03-06T09:04:27.955Z,6.20
2024-03-06T09:06:56.840Z,6.40
2024-03-06T09:09:25.837Z,6.50
2024-03-06T09:11:56.240Z,6.70
2024-03-06T09:14:26.207Z,7.00
2024-03-06T09:16:55.329Z,7.20
2024-03-06T09:19:24.600Z,7.30
2024-03-06T09:21:53.385Z,7.50
2024-03-06T09:24:26.272Z,7.50
2024-03-06T09:26:56.777Z,7.70
2024-03-06T09:29:25.646Z,7.80
2024-03-06T09:31:54.516Z,7.90
2024-03-06T09:34:24.277Z,8.20
2024-03-06T09:36:53.438Z,8.30
2024-03-06T09:39:24.069Z,8.40
2024-03-06T09:41:53.532Z,8.50
2024-03-06T09:44:23.980Z,8.50
2024-03-06T09:46:53.103Z,8.60
2024-03-06T09:49:22.628Z,8.60
2024-03-06T09:51:52.282Z,8.60
2024-03-06T09:54:22.434Z,8.70
2024-03-06T09:56:51.504Z,8.70
2024-03-06T09:59:20.352Z,8.80
2024-03-06T10:01:56.487Z,9.00
2024-03-06T10:04:27.193Z,9.20
2024-03-06T10:06:57.495Z,9.30
2024-03-06T10:09:27.399Z,9.30
2024-03-06T10:11:59.086Z,9.40
2024-03-06T10:14:30.215Z,9.30
2024-03-06T10:17:02.553Z,9.30
2024-03-06T10:19:32.681Z,9.50
2024-03-06T10:22:01.605Z,9.40
2024-03-06T10:24:31.922Z,9.40
2024-03-06T10:27:01.899Z,9.50
2024-03-06T10:29:32.060Z,9.50
2024-03-06T10:32:02.588Z,9.30
2024-03-06T10:34:32.331Z,9.10
2024-03-06T10:37:05.079Z,9.10
2024-03-06T10:39:37.968Z,9.00
2024-03-06T10:42:09.711Z,9.10
2024-03-06T10:44:45.399Z,9.00
2024-03-06T10:47:18.224Z,8.90
2024-03-06T10:49:49.130Z,8.90
2024-03-06T10:52:21.514Z,8.90
2024-03-06T10:54:51.838Z,8.90
2024-03-06T10:57:22.708Z,9.10
2024-03-06T10:59:52.331Z,9.20
2024-03-06T11:02:25.553Z,9.40
2024-03-06T11:04:55.769Z,9.70
2024-03-06T11:07:25.110Z,9.90
2024-03-06T11:09:53.988Z,9.70
2024-03-06T11:12:39.076Z,9.60
2024-03-06T11:15:18.420Z,9.60
2024-03-06T11:17:50.343Z,9.20
2024-03-06T11:20:21.347Z,9.10
2024-03-06T11:23:11.406Z,9.20
2024-03-06T11:26:14.543Z,8.90
2024-03-06T11:28:51.591Z,9.40
2024-03-06T11:31:26.149Z,9.80
2024-03-06T11:34:09.272Z,10.00
2024-03-06T11:36:39.669Z,9.70
2024-03-06T11:39:10.629Z,9.70
2024-03-06T11:41:51.032Z,9.70
2024-03-06T11:44:25.108Z,9.60
2024-03-06T11:47:02.517Z,9.50
2024-03-06T11:49:35.972Z,9.50
2024-03-06T11:52:09.274Z,9.50
2024-03-06T11:54:39.556Z,9.40
2024-03-06T11:57:09.280Z,9.30
2024-03-06T11:59:40.688Z,9.20
2024-03-06T12:02:11.754Z,9.20
2024-03-06T12:04:47.277Z,9.30
2024-03-06T12:07:17.859Z,9.30
2024-03-06T12:09:48.180Z,9.30
2024-03-06T12:12:20.442Z,9.30
2024-03-06T12:15:01.632Z,9.30
2024-03-06T12:17:30.969Z,9.50
2024-03-06T12:20:04.134Z,9.40
2024-03-06T12:22:35.849Z,9.40
2024-03-06T12:25:05.580Z,9.40
2024-03-06T12:27:38.372Z,9.30
2024-03-06T12:30:14.531Z,9.10
2024-03-06T12:32:45.130Z,9.20
2024-03-06T12:35:27.110Z,9.40
2024-03-06T12:37:56.688Z,9.60
2024-03-06T12:40:26.695Z,9.70
2024-03-06T12:42:56.253Z,9.50
2024-03-06T12:45:25.292Z,9.60
2024-03-06T12:47:54.534Z,9.70
2024-03-06T12:50:25.512Z,9.60
2024-03-06T12:52:55.824Z,9.50
2024-03-06T12:55:25.071Z,9.50
2024-03-06T12:57:54.868Z,9.40
2024-03-06T13:00:27.586Z,9.50
2024-03-06T13:02:57.143Z,9.20
2024-03-06T13:05:27.474Z,9.10
2024-03-06T13:07:56.376Z,9.30
2024-03-06T13:10:25.613Z,9.30
2024-03-06T13:12:54.517Z,9.40
2024-03-06T13:15:23.443Z,9.50
2024-03-06T13:17:52.931Z,9.50
2024-03-06T13:20:21.957Z,9.50
2024-03-06T13:22:53.482Z,9.40
2024-03-06T13:25:23.630Z,9.40
2024-03-06T13:27:53.339Z,9.30
2024-03-06T13:30:24.669Z,9.50
2024-03-06T13:32:54.205Z,9.40
2024-03-06T13:35:23.494Z,9.30
2024-03-06T13:37:55.065Z,9.30
2024-03-06T13:40:24.539Z,9.40
2024-03-06T13:42:54.548Z,9.40
2024-03-06T13:45:23.651Z,9.30
2024-03-06T13:47:52.869Z,9.10
2024-03-06T13:50:23.215Z,9.20
2024-03-06T13:52:53.990Z,9.30
2024-03-06T13:55:24.072Z,9.30
2024-03-06T13:57:53.099Z,9.10
2024-03-06T14:00:28.145Z,9.20
2024-03-06T14:02:57.700Z,9.20
2024-03-06T14:05:27.666Z,9.20
2024-03-06T14:07:58.658Z,9.20
2024-03-06T14:10:31.417Z,9.20
2024-03-06T14:13:00.570Z,9.20
2024-03-06T14:15:31.649Z,9.20
2024-03-06T14:18:03.133Z,9.30
2024-03-06T14:20:33.156Z,9.20
2024-03-06T14:23:03.623Z,9.10
2024-03-06T14:25:36.113Z,8.90
2024-03-06T14:28:06.132Z,8.80
2024-03-06T14:30:36.366Z,8.90
2024-03-06T14:33:06.624Z,9.00
2024-03-06T14:35:36.231Z,9.10
2024-03-06T14:38:06.778Z,9.00
2024-03-06T14:40:37.381Z,9.00
2024-03-06T14:43:12.121Z,9.10
2024-03-06T14:45:44.481Z,9.10
2024-03-06T14:48:18.270Z,9.10
2024-03-06T14:50:59.454Z,9.00
2024-03-06T14:53:38.077Z,8.70
2024-03-06T14:56:28.272Z,8.90
2024-03-06T14:59:08.650Z,9.00
2024-03-06T15:01:39.441Z,9.00
2024-03-06T15:04:08.995Z,9.10
2024-03-06T15:06:38.626Z,9.10
2024-03-06T15:09:13.122Z,9.00
2024-03-06T15:11:43.203Z,9.00
2024-03-06T15:14:12.952Z,8.90
2024-03-06T15:16:43.874Z,8.90
2024-03-06T15:19:13.057Z,9.00
2024-03-06T15:21:48.060Z,8.90
2024-03-06T15:24:20.465Z,8.80
2024-03-06T15:26:54.124Z,8.80
2024-03-06T15:29:30.871Z,8.60
2024-03-06T15:32:01.786Z,8.60
2024-03-06T15:34:35.284Z,8.70
2024-03-06T15:37:11.550Z,8.70
2024-03-06T15:39:46.593Z,8.70
2024-03-06T15:42:32.182Z,8.70
2024-03-06T15:45:01.549Z,8.60
2024-03-06T15:47:32.566Z,8.60
2024-03-06T15:50:01.723Z,8.70
2024-03-06T15:52:30.578Z,8.70
2024-03-06T15:55:01.364Z,8.50
2024-03-06T15:57:34.272Z,8.50
2024-03-06T16:00:03.510Z,8.50
2024-03-06T16:02:39.591Z,8.60
2024-03-06T16:05:10.341Z,8.60
2024-03-06T16:07:44.564Z,8.30
2024-03-06T16:10:22.303Z,8.40
2024-03-06T16:12:52.826Z,8.40
2024-03-06T16:15:27.883Z,8.40
2024-03-06T16:18:01.160Z,8.20
2024-03-06T16:20:35.435Z,8.20
2024-03-06T16:23:09.155Z,8.10
2024-03-06T16:26:00.740Z,8.20
2024-03-06T16:28:41.301Z,8.20
2024-03-06T16:31:15.806Z,8.10
2024-03-06T16:33:50.536Z,8.00
2024-03-06T16:36:23.836Z,8.00
2024-03-06T16:38:55.374Z,7.90
2024-03-06T16:41:27.238Z,7.90
2024-03-06T16:43:58.018Z,7.80
2024-03-06T16:46:29.270Z,7.90
2024-03-06T16:48:58.120Z,7.90
2024-03-06T16:51:28.484Z,7.80
2024-03-06T16:54:06.423Z,7.90
2024-03-06T16:56:43.489Z,7.80
2024-03-06T16:59:13.895Z,7.80
2024-03-06T17:01:43.888Z,7.80
2024-03-06T17:11:28.491Z,7.70
2024-03-06T17:14:13.160Z,7.70
2024-03-06T17:16:51.039Z,7.70
2024-03-06T17:19:30.142Z,7.70
2024-03-06T17:22:14.197Z,7.70
2024-03-06T17:24:46.101Z,7.60
2024-03-06T17:27:21.679Z,7.60
2024-03-06T17:29:58.537Z,7.70
2024-03-06T17:32:45.034Z,7.70
2024-03-06T17:36:04.831Z,7.60
2024-03-06T17:38:45.428Z,7.60
2024-03-06T17:41:21.314Z,7.60
2024-03-06T17:44:06.790Z,7.50
2024-03-06T17:46:59.661Z,7.60
2024-03-06T17:49:34.366Z,7.50
2024-03-06T17:52:18.262Z,7.50
2024-03-06T17:54:49.459Z,7.50
2024-03-06T17:57:22.033Z,7.40
2024-03-06T18:00:11.041Z,7.50
2024-03-06T18:03:14.572Z,7.40
2024-03-06T18:05:51.371Z,7.30
2024-03-06T18:08:31.931Z,7.30
2024-03-06T18:11:09.087Z,7.40
2024-03-06T18:13:54.550Z,7.30
2024-03-06T18:16:30.208Z,7.30
2024-03-06T18:19:23.382Z,7.30
2024-03-06T18:21:55.761Z,7.30
2024-03-06T18:24:26.206Z,7.30
2024-03-06T18:27:04.342Z,7.10
2024-03-06T18:29:39.310Z,7.20
2024-03-06T18:32:09.516Z,7.20
2024-03-06T18:34:40.278Z,7.20
2024-03-06T18:37:09.789Z,7.20
2024-03-06T18:39:38.941Z,7.20
2024-03-06T18:42:16.126Z,7.30
2024-03-06T18:44:50.896Z,7.20
2024-03-06T18:47:20.436Z,7.30
2024-03-06T18:49:52.020Z,7.30
2024-03-06T18:52:21.989Z,7.30
2024-03-06T18:54:52.494Z,7.30
2024-03-06T18:57:21.525Z,7.30
2024-03-06T18:59:53.809Z,7.10
2024-03-06T19:02:22.979Z,7.10
2024-03-06T19:04:54.281Z,7.00
2024-03-06T19:07:23.735Z,7.10
2024-03-06T19:09:53.904Z,7.10
2024-03-06T19:12:22.887Z,7.10
2024-03-06T19:14:52.119Z,7.10
2024-03-06T19:17:21.004Z,7.10
2024-03-06T19:19:50.916Z,7.10
2024-03-06T19:22:21.281Z,7.00
2024-03-06T19:24:50.787Z,6.90
2024-03-06T19:27:23.519Z,7.00
2024-03-06T19:29:53.765Z,7.00
2024-03-06T19:32:36.868Z,7.00
2024-03-06T19:35:12.506Z,7.00
2024-03-06T19:37:42.789Z,7.00
2024-03-06T19:40:14.454Z,7.10
2024-03-06T19:42:46.469Z,7.00
2024-03-06T19:45:16.452Z,6.90
2024-03-06T19:47:45.454Z,7.00
2024-03-06T19:50:14.409Z,6.90
2024-03-06T19:52:50.344Z,6.90
2024-03-06T19:55:21.040Z,6.80
2024-03-06T19:57:50.952Z,6.70
2024-03-06T20:00:21.522Z,6.70
2024-03-06T20:02:50.877Z,6.70
2024-03-06T20:05:20.390Z,6.60
2024-03-06T20:07:51.515Z,6.70
2024-03-06T20:10:22.390Z,6.70
2024-03-06T20:12:51.542Z,6.60
2024-03-06T20:15:22.259Z,6.50
2024-03-06T20:17:51.204Z,6.50
2024-03-06T20:20:21.375Z,6.40
2024-03-06T20:22:57.466Z,6.40
2024-03-06T20:25:26.586Z,6.40
2024-03-06T20:27:55.673Z,6.20
2024-03-06T20:30:24.671Z,6.20
2024-03-06T20:32:54.361Z,6.20
2024-03-06T20:35:25.022Z,6.10
2024-03-06T20:37:55.743Z,6.20
2024-03-06T20:40:26.858Z,6.20
2024-03-06T20:42:56.636Z,6.10
2024-03-06T20:45:25.994Z,6.10
2024-03-06T20:48:01.758Z,6.10
2024-03-06T20:50:31.057Z,6.10
2024-03-06T20:53:01.791Z,6.00
2024-03-06T20:55:31.106Z,6.10
2024-03-06T20:58:00.036Z,6.10
2024-03-06T21:00:32.069Z,6.10
2024-03-06T21:03:01.117Z,6.10
2024-03-06T21:05:30.241Z,6.10
2024-03-06T21:08:00.638Z,6.00
2024-03-06T21:10:30.207Z,6.00
2024-03-06T21:12:59.149Z,6.00
2024-03-06T21:15:29.219Z,6.10
2024-03-06T21:17:59.930Z,6.10
2024-03-06T21:20:30.106Z,6.00
2024-03-06T21:23:01.585Z,6.00
2024-03-06T21:25:31.023Z,6.00
2024-03-06T21:28:00.189Z,6.00
2024-03-06T21:30:29.302Z,6.10
2024-03-06T21:32:58.305Z,6.00
2024-03-06T21:35:28.614Z,6.00
2024-03-06T21:37:57.925Z,5.90
2024-03-06T21:40:30.006Z,6.00
2024-03-06T21:42:59.402Z,5.90
2024-03-06T21:45:28.321Z,5.90
2024-03-06T21:47:57.398Z,5.90
2024-03-06T21:50:26.668Z,6.00
2024-03-06T21:52:57.095Z,6.00
2024-03-06T21:55:27.960Z,6.00
2024-03-06T21:57:56.942Z,5.90
2024-03-06T22:00:25.853Z,5.90
2024-03-06T22:02:54.760Z,5.90
2024-03-06T22:05:23.723Z,5.90
2024-03-06T22:07:53.115Z,6.00
2024-03-06T22:10:22.366Z,6.00
2024-03-06T22:12:54.237Z,6.00
2024-03-06T22:15:23.237Z,6.00
2024-03-06T22:17:52.439Z,5.90
2024-03-06T22:20:21.724Z,5.90
2024-03-06T22:22:50.572Z,5.80
2024-03-06T22:25:19.638Z,5.90
2024-03-06T22:27:49.500Z,6.00
2024-03-06T22:30:19.924Z,6.00
2024-03-06T22:32:49.451Z,5.90
2024-03-06T22:35:18.527Z,6.00
2024-03-06T22:37:47.387Z,5.90
2024-03-06T22:40:16.469Z,5.90
2024-03-06T22:42:45.315Z,5.80
2024-03-06T22:45:15.959Z,5.50
2024-03-06T22:47:46.680Z,5.50
2024-03-06T22:50:15.791Z,5.50
2024-03-06T22:52:44.663Z,5.70
2024-03-06T22:55:13.589Z,5.80
2024-03-06T22:57:42.479Z,5.90
2024-03-06T23:00:30.370Z,6.00
2024-03-06T23:03:01.917Z,6.00
2024-03-06T23:05:30.985Z,6.00
2024-03-06T23:07:59.905Z,6.00
2024-03-06T23:10:28.779Z,5.90
2024-03-06T23:12:57.690Z,5.90
2024-03-06T23:15:26.709Z,5.90
2024-03-06T23:17:56.693Z,5.90
2024-03-06T23:20:27.305Z,5.90
2024-03-06T23:22:56.251Z,5.90
2024-03-06T23:25:25.097Z,5.90
2024-03-06T23:27:53.903Z,5.90
2024-03-06T23:30:23.076Z,5.90
2024-03-06T23:32:52.814Z,5.90
2024-03-06T23:35:22.148Z,5.90
2024-03-06T23:37:52.788Z,5.90
2024-03-06T23:40:21.719Z,5.90
2024-03-06T23:42:50.796Z,6.00
2024-03-06T23:45:20.204Z,6.00
2024-03-06T23:47:50.775Z,6.00
2024-03-06T23:50:21.887Z,6.00
2024-03-06T23:52:52.952Z,6.10
2024-03-06T23:55:21.774Z,6.00
2024-03-06T23:57:50.542Z,6.00
